Pittston, Pennsylvania
Current Conditions -  °F | °C
As of 5:54 PM on Thursday 23 Oct 2014 (Local Time) from KAVP Reporting Station
Overcast Overcast  
Wind Chill: 50°   Ceiling: 2000
Heat Index: 50°   Visibility: 10mi
Dew Point: 42°   Wind: 10mph
Humidity: 74%   Direction: 360°N
Pressure: 29.87"   Gusts: 16mph
Location:  41.32°N, 75.79°W
Report Text: KAVP 232154Z AUTO 36009G14KT 330V040 10SM OVC020 10/06 A2987 RMK AO2 RAB12E36 SLP115 P0000 T01000056
Loading
Personal Weather Stations






























Interactive Weather Map
Tropical Storm Tracking
New forecast layout! Learn more

10-Day Weather Forecast

Advertisements
Track Severe Weather on mobile